Time;durP1;ratioP1;P1;durP2;ratioP2;P2;SDS_P1;SDS_P2;PMS_P1;PMS_P2;Temp;Humidity;BMP_temperature;BMP_pressure;BME280_temperature;BME280_humidity;BME280_pressure;Samples;Min_cycle;Max_cycle;Signal;HPM_P1;HPM_P2
2023/03/22 00:02:03;;;;;;;16.80;10.03;;;;;;;;;;5004769;28;20318;-66
2023/03/22 00:04:31;;;;;;;16.10;9.67;;;;;;;;;;5003707;28;20281;-66
2023/03/22 00:07:00;;;;;;;16.97;10.60;;;;;;;;;;5003547;28;20238;-66
2023/03/22 00:09:27;;;;;;;16.70;10.97;;;;;;;;;;5005371;28;20234;-66
2023/03/22 00:11:54;;;;;;;19.07;11.03;;;;;;;;;;5002688;28;20223;-66
2023/03/22 00:14:21;;;;;;;16.23;11.17;;;;;;;;;;4990660;28;20772;-66
2023/03/22 00:16:48;;;;;;;18.83;10.93;;;;;;;;;;5003002;28;20246;-66
2023/03/22 00:19:16;;;;;;;19.13;12.30;;;;;;;;;;4991246;28;20231;-66
2023/03/22 00:21:43;;;;;;;20.70;12.57;;;;;;;;;;5003371;28;20246;-66
2023/03/22 00:24:10;;;;;;;19.63;11.43;;;;;;;;;;5005180;28;20235;-66
2023/03/22 00:26:37;;;;;;;19.47;12.73;;;;;;;;;;5003154;28;20238;-65
2023/03/22 00:29:04;;;;;;;21.27;12.83;;;;;;;;;;4999711;28;20224;-66
2023/03/22 00:31:32;;;;;;;20.60;12.83;;;;;;;;;;4967253;28;20672;-66
2023/03/22 00:33:59;;;;;;;19.47;12.43;;;;;;;;;;4985844;28;20254;-66
2023/03/22 00:36:26;;;;;;;20.07;12.77;;;;;;;;;;4984077;28;20271;-66
2023/03/22 00:38:52;;;;;;;20.23;13.10;;;;;;;;;;4983656;28;20587;-66
2023/03/22 00:41:20;;;;;;;21.67;13.67;;;;;;;;;;4983870;28;20254;-66
2023/03/22 00:43:46;;;;;;;21.67;13.90;;;;;;;;;;4985620;28;20706;-66
2023/03/22 00:46:13;;;;;;;22.47;13.80;;;;;;;;;;4984241;28;20238;-66
2023/03/22 00:48:40;;;;;;;24.00;15.47;;;;;;;;;;4970973;28;20299;-66
2023/03/22 00:51:07;;;;;;;26.23;15.20;;;;;;;;;;4983515;28;20564;-66
2023/03/22 00:53:36;;;;;;;25.83;15.10;;;;;;;;;;4983920;28;20235;-65
2023/03/22 00:56:04;;;;;;;21.60;14.30;;;;;;;;;;4983387;28;20709;-64
2023/03/22 00:58:40;;;;;;;24.03;14.53;;;;;;;;;;5010484;28;20226;-64
2023/03/22 01:01:07;;;;;;;23.67;14.87;;;;;;;;;;5004589;28;20231;-64
2023/03/22 01:03:34;;;;;;;24.27;15.43;;;;;;;;;;5008749;28;20314;-64
2023/03/22 01:06:01;;;;;;;25.77;15.80;;;;;;;;;;5005134;28;20302;-66
2023/03/22 01:08:32;;;;;;;23.53;14.77;;;;;;;;;;5006071;28;20223;-66
2023/03/22 01:11:00;;;;;;;26.50;16.17;;;;;;;;;;5021678;28;20259;-65
2023/03/22 01:13:26;;;;;;;25.87;16.23;;;;;;;;;;5021462;28;20230;-64
2023/03/22 01:15:53;;;;;;;27.40;16.47;;;;;;;;;;5008201;28;20721;-65
2023/03/22 01:18:20;;;;;;;24.73;15.00;;;;;;;;;;5010870;28;20225;-65
2023/03/22 01:20:47;;;;;;;28.23;16.97;;;;;;;;;;5024938;28;20233;-66
2023/03/22 01:23:13;;;;;;;25.03;15.90;;;;;;;;;;5026338;28;20632;-66
2023/03/22 01:25:40;;;;;;;25.47;17.27;;;;;;;;;;5022002;28;20949;-67
2023/03/22 01:28:07;;;;;;;27.43;17.67;;;;;;;;;;5023274;28;20227;-66
2023/03/22 01:30:34;;;;;;;25.60;17.33;;;;;;;;;;5006482;28;20906;-66
2023/03/22 01:33:01;;;;;;;26.80;16.20;;;;;;;;;;5006436;28;20235;-66
2023/03/22 01:35:31;;;;;;;25.33;15.83;;;;;;;;;;5004838;28;20228;-66
2023/03/22 01:37:59;;;;;;;26.97;16.93;;;;;;;;;;5004185;28;20226;-66
2023/03/22 01:40:25;;;;;;;24.07;16.07;;;;;;;;;;5023096;28;20250;-66
2023/03/22 02:17:50;;;;;;;28.47;16.70;;;;;;;;;;4637891;28;20304;-66
2023/03/22 02:20:37;;;;;;;27.03;15.67;;;;;;;;;;5003994;28;20227;-66
2023/03/22 02:23:23;;;;;;;27.97;16.07;;;;;;;;;;5004898;28;20226;-66
2023/03/22 02:26:14;;;;;;;26.57;15.07;;;;;;;;;;5003273;28;20241;-66
2023/03/22 02:28:47;;;;;;;26.10;15.33;;;;;;;;;;4984290;28;20230;-66
2023/03/22 02:31:20;;;;;;;26.27;16.30;;;;;;;;;;5004174;28;20761;-66
2023/03/22 02:33:52;;;;;;;27.63;15.93;;;;;;;;;;5004410;28;20234;-66
2023/03/22 02:36:37;;;;;;;25.60;16.03;;;;;;;;;;4987291;28;20236;-66
2023/03/22 02:39:39;;;;;;;23.53;14.10;;;;;;;;;;5002070;28;20298;-66
2023/03/22 02:42:09;;;;;;;19.93;12.00;;;;;;;;;;4946757;28;20783;-65
2023/03/22 02:44:39;;;;;;;28.67;15.37;;;;;;;;;;4996769;28;20227;-66
2023/03/22 02:47:06;;;;;;;26.90;14.93;;;;;;;;;;5001414;28;20230;-66
2023/03/22 02:49:37;;;;;;;28.87;17.03;;;;;;;;;;5004673;28;20318;-66
2023/03/22 02:52:16;;;;;;;29.57;16.53;;;;;;;;;;4957961;28;20294;-66
2023/03/22 02:54:48;;;;;;;28.57;17.20;;;;;;;;;;4970854;28;20282;-66
2023/03/22 02:57:23;;;;;;;27.23;15.20;;;;;;;;;;4983919;28;20713;-66
2023/03/22 02:59:54;;;;;;;25.97;16.13;;;;;;;;;;5007873;28;20360;-65
2023/03/22 03:02:21;;;;;;;30.50;17.67;;;;;;;;;;5017639;28;20313;-66
2023/03/22 03:04:48;;;;;;;29.23;16.93;;;;;;;;;;4994541;28;20361;-66
2023/03/22 03:07:16;;;;;;;27.67;17.97;;;;;;;;;;4992228;28;20223;-65
2023/03/22 03:09:43;;;;;;;29.07;16.83;;;;;;;;;;4965911;28;20234;-66
2023/03/22 03:12:17;;;;;;;31.43;19.27;;;;;;;;;;5022875;28;20265;-66
2023/03/22 03:14:44;;;;;;;24.93;14.67;;;;;;;;;;5022888;28;20214;-66
2023/03/22 03:17:34;;;;;;;28.63;15.70;;;;;;;;;;5024408;28;20238;-66
2023/03/22 03:20:20;;;;;;;30.40;17.47;;;;;;;;;;5004951;28;20218;-65
2023/03/22 03:23:02;;;;;;;31.37;18.50;;;;;;;;;;4996616;28;20293;-66
2023/03/22 03:25:48;;;;;;;34.83;21.07;;;;;;;;;;5018437;28;20238;-66
2023/03/22 03:28:37;;;;;;;34.20;18.47;;;;;;;;;;4986094;28;20765;-66
2023/03/22 03:31:09;;;;;;;26.47;14.40;;;;;;;;;;5005821;28;20235;-65
2023/03/22 03:33:40;;;;;;;20.90;11.57;;;;;;;;;;5004961;28;20221;-66
2023/03/22 03:36:08;;;;;;;39.33;21.27;;;;;;;;;;5006954;28;20239;-66
2023/03/22 03:38:36;;;;;;;32.27;17.10;;;;;;;;;;5004323;28;20768;-66
2023/03/22 03:41:04;;;;;;;39.83;22.33;;;;;;;;;;5002698;28;20235;-66
2023/03/22 03:43:31;;;;;;;39.57;22.13;;;;;;;;;;5002377;28;20247;-67
2023/03/22 03:45:57;;;;;;;40.87;21.90;;;;;;;;;;4989630;28;20695;-66
2023/03/22 03:48:26;;;;;;;44.37;23.87;;;;;;;;;;4987681;28;20297;-66
2023/03/22 03:50:53;;;;;;;44.50;24.23;;;;;;;;;;5004198;28;20242;-66
2023/03/22 03:53:20;;;;;;;42.23;23.67;;;;;;;;;;5020223;28;20231;-67
2023/03/22 03:55:47;;;;;;;46.27;24.90;;;;;;;;;;5001766;28;20717;-67
2023/03/22 03:58:17;;;;;;;46.97;25.93;;;;;;;;;;4990575;28;20307;-67
2023/03/22 04:00:45;;;;;;;44.30;25.33;;;;;;;;;;5004189;28;20234;-67
2023/03/22 04:03:21;;;;;;;46.73;25.87;;;;;;;;;;5003282;28;20590;-67
2023/03/22 04:06:11;;;;;;;48.43;24.70;;;;;;;;;;4986893;28;20310;-67
2023/03/22 04:08:44;;;;;;;40.37;21.53;;;;;;;;;;4998961;28;20318;-67
2023/03/22 04:11:13;;;;;;;51.47;25.67;;;;;;;;;;4994970;28;20220;-67
2023/03/22 04:13:45;;;;;;;47.73;23.60;;;;;;;;;;5005221;28;20223;-67
2023/03/22 04:16:18;;;;;;;48.43;26.50;;;;;;;;;;5017585;28;20229;-67
2023/03/22 04:18:45;;;;;;;50.73;26.63;;;;;;;;;;5022398;28;20234;-67
2023/03/22 04:21:12;;;;;;;48.00;23.77;;;;;;;;;;5003557;28;20235;-67
2023/03/22 04:24:06;;;;;;;51.93;26.27;;;;;;;;;;4985777;28;20218;-67
2023/03/22 04:26:36;;;;;;;56.43;26.70;;;;;;;;;;5003797;28;20289;-67
2023/03/22 04:29:17;;;;;;;51.13;27.37;;;;;;;;;;5007388;28;20268;-67
2023/03/22 04:31:48;;;;;;;51.23;26.93;;;;;;;;;;5016055;28;20218;-67
2023/03/22 04:34:35;;;;;;;50.93;24.37;;;;;;;;;;5005439;28;20231;-67
2023/03/22 04:37:04;;;;;;;47.20;23.37;;;;;;;;;;5009021;28;20235;-67
2023/03/22 04:39:35;;;;;;;44.00;21.30;;;;;;;;;;5014744;28;20226;-67
2023/03/22 04:42:20;;;;;;;53.60;27.03;;;;;;;;;;5027977;28;20229;-67
2023/03/22 04:44:54;;;;;;;56.10;26.67;;;;;;;;;;5022120;28;20226;-67
2023/03/22 04:47:21;;;;;;;50.77;24.90;;;;;;;;;;5009084;28;20928;-67
2023/03/22 04:49:48;;;;;;;50.37;25.40;;;;;;;;;;5002021;28;20234;-67
2023/03/22 04:52:15;;;;;;;49.67;23.93;;;;;;;;;;5024926;28;20246;-67
2023/03/22 04:54:49;;;;;;;50.50;26.37;;;;;;;;;;5007731;28;20306;-67
2023/03/22 04:57:16;;;;;;;47.13;24.13;;;;;;;;;;5002842;28;20262;-67
2023/03/22 04:59:46;;;;;;;54.87;25.57;;;;;;;;;;5033143;28;20610;-67
2023/03/22 05:02:13;;;;;;;50.80;25.00;;;;;;;;;;5013162;28;20713;-66
2023/03/22 05:04:41;;;;;;;46.07;24.77;;;;;;;;;;5004217;28;20273;-66
2023/03/22 05:07:26;;;;;;;45.90;24.73;;;;;;;;;;4982642;28;20775;-68
2023/03/22 05:09:57;;;;;;;45.17;24.03;;;;;;;;;;5018857;28;20226;-68
2023/03/22 05:12:24;;;;;;;49.80;23.87;;;;;;;;;;5021989;28;20274;-67
2023/03/22 05:15:20;;;;;;;46.57;24.63;;;;;;;;;;4968884;28;20239;-67
2023/03/22 05:17:49;;;;;;;43.63;23.10;;;;;;;;;;4986442;28;20871;-67
2023/03/22 05:20:16;;;;;;;44.63;21.63;;;;;;;;;;4985525;28;20215;-67
2023/03/22 05:22:49;;;;;;;44.60;21.73;;;;;;;;;;4990884;28;20234;-67
2023/03/22 05:25:18;;;;;;;44.43;22.50;;;;;;;;;;5002537;28;20331;-67
2023/03/22 05:27:49;;;;;;;44.23;23.23;;;;;;;;;;5000952;28;20235;-68
2023/03/22 05:30:38;;;;;;;42.80;23.17;;;;;;;;;;4998478;28;20220;-69
2023/03/22 05:33:20;;;;;;;45.53;22.43;;;;;;;;;;5006019;28;20218;-67
2023/03/22 05:35:50;;;;;;;43.50;21.50;;;;;;;;;;5021168;28;20234;-67
2023/03/22 05:38:18;;;;;;;47.63;21.83;;;;;;;;;;5017187;28;20309;-67
2023/03/22 05:40:49;;;;;;;47.27;23.27;;;;;;;;;;5014235;28;20231;-67
2023/03/22 05:43:15;;;;;;;45.07;22.47;;;;;;;;;;5003268;28;20230;-67
2023/03/22 05:45:46;;;;;;;38.70;19.30;;;;;;;;;;5001382;28;20239;-67
2023/03/22 05:48:36;;;;;;;45.23;22.80;;;;;;;;;;4981060;28;20744;-67
2023/03/22 05:51:07;;;;;;;39.77;20.10;;;;;;;;;;5020721;28;20231;-67
2023/03/22 05:53:34;;;;;;;41.23;21.90;;;;;;;;;;4995146;28;20760;-67
2023/03/22 05:56:10;;;;;;;46.37;23.33;;;;;;;;;;4990989;28;20238;-66
2023/03/22 05:58:40;;;;;;;44.83;21.97;;;;;;;;;;5009260;28;20228;-66
2023/03/22 06:01:10;;;;;;;44.93;22.70;;;;;;;;;;5002014;28;20231;-65
2023/03/22 06:03:47;;;;;;;43.30;22.23;;;;;;;;;;5000485;23;20199;-66
2023/03/22 06:06:36;;;;;;;45.77;22.80;;;;;;;;;;4951663;28;20247;-66
2023/03/22 06:09:13;;;;;;;44.20;23.50;;;;;;;;;;4963096;28;20286;-67
2023/03/22 06:11:50;;;;;;;45.20;22.50;;;;;;;;;;4963069;28;20221;-67
2023/03/22 06:14:17;;;;;;;46.17;21.67;;;;;;;;;;4979135;28;20236;-67
2023/03/22 06:17:05;;;;;;;47.90;24.03;;;;;;;;;;4964395;28;20229;-67
2023/03/22 06:19:31;;;;;;;48.23;24.07;;;;;;;;;;4959725;28;20229;-67
2023/03/22 06:22:01;;;;;;;50.47;24.40;;;;;;;;;;4965163;28;20664;-67
2023/03/22 06:24:30;;;;;;;49.70;24.20;;;;;;;;;;4951714;28;20718;-66
2023/03/22 06:26:57;;;;;;;52.07;24.50;;;;;;;;;;4978529;28;20575;-66
2023/03/22 06:29:25;;;;;;;49.77;24.10;;;;;;;;;;4980630;28;20291;-66
2023/03/22 06:31:54;;;;;;;52.97;25.57;;;;;;;;;;4962087;28;20228;-66
2023/03/22 06:34:21;;;;;;;48.27;24.03;;;;;;;;;;4973482;28;20344;-65
2023/03/22 06:36:48;;;;;;;53.03;25.67;;;;;;;;;;4954024;28;20228;-66
2023/03/22 06:39:25;;;;;;;45.80;22.33;;;;;;;;;;4971797;28;20255;-66
2023/03/22 06:41:52;;;;;;;47.23;24.37;;;;;;;;;;4965455;28;20223;-65
2023/03/22 06:44:21;;;;;;;35.13;16.13;;;;;;;;;;4976960;28;20243;-66
2023/03/22 06:46:50;;;;;;;49.23;23.10;;;;;;;;;;4963104;28;20318;-65
2023/03/22 06:49:37;;;;;;;51.80;26.30;;;;;;;;;;4979377;28;20235;-66
2023/03/22 06:52:04;;;;;;;47.77;22.43;;;;;;;;;;4977696;28;20688;-66
2023/03/22 06:54:33;;;;;;;55.90;27.73;;;;;;;;;;4967001;28;20225;-66
2023/03/22 06:56:59;;;;;;;58.13;27.33;;;;;;;;;;4945851;28;20243;-68
2023/03/22 06:59:26;;;;;;;56.03;26.97;;;;;;;;;;4976451;28;20255;-67
2023/03/22 07:01:54;;;;;;;52.17;25.33;;;;;;;;;;4963528;28;20691;-67
2023/03/22 07:04:21;;;;;;;54.77;26.47;;;;;;;;;;4968524;28;20240;-67
2023/03/22 07:06:48;;;;;;;55.53;27.47;;;;;;;;;;4958569;28;20225;-68
2023/03/22 07:09:15;;;;;;;53.27;25.83;;;;;;;;;;4959308;28;20237;-68
2023/03/22 07:11:46;;;;;;;52.47;26.37;;;;;;;;;;4960027;28;20233;-70
2023/03/22 07:14:13;;;;;;;48.90;24.57;;;;;;;;;;4962170;28;20300;-69
2023/03/22 07:16:56;;;;;;;54.10;25.20;;;;;;;;;;4959753;28;20242;-68
2023/03/22 07:19:26;;;;;;;53.10;27.03;;;;;;;;;;5001176;28;20588;-72
2023/03/22 07:21:53;;;;;;;52.70;26.40;;;;;;;;;;4980655;28;20310;-69
2023/03/22 07:24:20;;;;;;;48.70;25.73;;;;;;;;;;5000821;28;20591;-69
2023/03/22 07:26:48;;;;;;;38.20;17.40;;;;;;;;;;4982824;28;20241;-67
2023/03/22 07:29:20;;;;;;;38.13;17.97;;;;;;;;;;4986916;28;20225;-68
2023/03/22 07:31:48;;;;;;;49.27;25.60;;;;;;;;;;4974445;28;20322;-68
2023/03/22 07:34:21;;;;;;;46.97;23.57;;;;;;;;;;4967318;28;20693;-68
2023/03/22 07:37:08;;;;;;;44.17;21.40;;;;;;;;;;4950824;28;20861;-68
2023/03/22 07:39:35;;;;;;;42.77;21.90;;;;;;;;;;4963392;28;20327;-67
2023/03/22 07:42:05;;;;;;;44.30;20.87;;;;;;;;;;4961075;28;20367;-68
2023/03/22 07:45:05;;;;;;;34.60;19.23;;;;;;;;;;4926191;28;20232;-69
2023/03/22 07:47:41;;;;;;;36.40;19.70;;;;;;;;;;4962220;28;20319;-66
2023/03/22 07:50:31;;;;;;;36.23;20.63;;;;;;;;;;4948362;28;20255;-67
2023/03/22 07:53:04;;;;;;;36.40;19.67;;;;;;;;;;4960732;28;20239;-68
2023/03/22 07:55:31;;;;;;;27.30;14.67;;;;;;;;;;4963986;28;20247;-68
2023/03/22 07:57:58;;;;;;;35.93;19.80;;;;;;;;;;4946539;28;20237;-67
2023/03/22 08:00:25;;;;;;;29.07;17.47;;;;;;;;;;4961215;28;20232;-67
2023/03/22 08:03:13;;;;;;;32.10;18.00;;;;;;;;;;4961480;28;20335;-68
2023/03/22 08:06:06;;;;;;;28.70;17.60;;;;;;;;;;4962683;28;20236;-67
2023/03/22 08:08:35;;;;;;;30.87;18.33;;;;;;;;;;4981401;28;20278;-68
2023/03/22 08:11:03;;;;;;;26.83;16.07;;;;;;;;;;4976632;28;20233;-67
2023/03/22 08:13:30;;;;;;;33.10;18.63;;;;;;;;;;4978398;28;20232;-68
2023/03/22 08:15:57;;;;;;;27.23;16.63;;;;;;;;;;4977265;28;20233;-67
2023/03/22 08:18:24;;;;;;;31.00;19.20;;;;;;;;;;4981648;28;20219;-68
2023/03/22 08:20:52;;;;;;;26.00;14.60;;;;;;;;;;4965387;28;20695;-67
2023/03/22 08:23:19;;;;;;;30.40;16.40;;;;;;;;;;4976074;28;20575;-67
2023/03/22 08:26:17;;;;;;;28.87;16.87;;;;;;;;;;4961170;28;20231;-67
2023/03/22 08:28:44;;;;;;;30.20;17.47;;;;;;;;;;4968895;28;20227;-67
2023/03/22 08:31:12;;;;;;;31.83;18.87;;;;;;;;;;4977331;28;20229;-67
2023/03/22 08:33:42;;;;;;;31.10;16.67;;;;;;;;;;4973185;28;20279;-67
2023/03/22 08:36:10;;;;;;;32.27;17.97;;;;;;;;;;4977982;28;20234;-68
2023/03/22 08:38:44;;;;;;;31.53;17.83;;;;;;;;;;4966127;28;20224;-68
2023/03/22 08:41:16;;;;;;;29.90;17.47;;;;;;;;;;4960276;28;20886;-67
2023/03/22 08:43:44;;;;;;;28.93;16.53;;;;;;;;;;4960240;28;20244;-67
2023/03/22 08:46:11;;;;;;;29.93;17.37;;;;;;;;;;4978512;28;20227;-67
2023/03/22 08:48:40;;;;;;;27.07;17.13;;;;;;;;;;4981203;28;20227;-67
2023/03/22 08:51:19;;;;;;;27.20;16.90;;;;;;;;;;4996038;28;20227;-64
2023/03/22 08:54:12;;;;;;;26.27;16.33;;;;;;;;;;4964263;28;20228;-68
2023/03/22 08:56:59;;;;;;;24.43;13.60;;;;;;;;;;4939337;28;20229;-67
2023/03/22 08:59:57;;;;;;;25.03;14.90;;;;;;;;;;4960627;28;20271;-66
2023/03/22 09:02:36;;;;;;;19.07;11.17;;;;;;;;;;4960680;28;20336;-66
2023/03/22 09:05:03;;;;;;;20.47;11.80;;;;;;;;;;4963641;28;20260;-69
2023/03/22 09:07:31;;;;;;;20.63;11.50;;;;;;;;;;4970126;28;20276;-67
2023/03/22 09:10:06;;;;;;;22.87;12.63;;;;;;;;;;4975796;28;20213;-68
2023/03/22 09:12:36;;;;;;;21.20;10.87;;;;;;;;;;4917580;28;20773;-66
2023/03/22 09:15:05;;;;;;;18.70;11.50;;;;;;;;;;4932895;28;20709;-67
2023/03/22 09:17:32;;;;;;;19.30;12.73;;;;;;;;;;4954978;28;20371;-70
2023/03/22 09:20:01;;;;;;;19.53;11.87;;;;;;;;;;4965647;28;20235;-67
2023/03/22 09:22:40;;;;;;;18.23;11.63;;;;;;;;;;4963984;28;20228;-69
2023/03/22 09:25:08;;;;;;;20.70;11.83;;;;;;;;;;4965104;28;20316;-66
2023/03/22 09:27:40;;;;;;;17.60;10.17;;;;;;;;;;4977464;28;20698;-66
2023/03/22 09:30:07;;;;;;;16.63;10.83;;;;;;;;;;4966391;28;20608;-66
2023/03/22 09:32:34;;;;;;;17.37;10.13;;;;;;;;;;4980200;28;20229;-66
2023/03/22 09:35:02;;;;;;;18.30;11.63;;;;;;;;;;4963105;28;22300;-66
2023/03/22 09:37:39;;;;;;;22.67;12.63;;;;;;;;;;4979337;28;20650;-66
2023/03/22 09:40:06;;;;;;;21.20;12.23;;;;;;;;;;4977965;28;20614;-66
2023/03/22 09:42:37;;;;;;;14.97;9.40;;;;;;;;;;4964441;28;20235;-67
2023/03/22 09:45:11;;;;;;;20.63;12.37;;;;;;;;;;4963156;28;20311;-66
2023/03/22 09:47:40;;;;;;;17.83;11.63;;;;;;;;;;4974794;28;20260;-66
2023/03/22 09:50:20;;;;;;;15.33;9.17;;;;;;;;;;4962758;28;20228;-66
2023/03/22 09:52:48;;;;;;;17.97;10.67;;;;;;;;;;4965029;28;20310;-65
2023/03/22 09:55:21;;;;;;;16.90;9.97;;;;;;;;;;4964988;28;20255;-65
2023/03/22 09:57:49;;;;;;;19.37;12.57;;;;;;;;;;4964352;28;20235;-67
2023/03/22 10:00:36;;;;;;;13.67;8.40;;;;;;;;;;4980464;28;20232;-66
2023/03/22 10:03:08;;;;;;;18.83;11.30;;;;;;;;;;4963852;28;20244;-66
2023/03/22 10:05:40;;;;;;;14.33;7.83;;;;;;;;;;4963574;28;20320;-66
2023/03/22 10:08:09;;;;;;;15.23;8.43;;;;;;;;;;4958567;28;20240;-67
2023/03/22 10:10:35;;;;;;;16.67;10.33;;;;;;;;;;4953941;28;20308;-65
2023/03/22 10:13:16;;;;;;;17.40;10.63;;;;;;;;;;4964061;28;20314;-65
2023/03/22 10:15:48;;;;;;;16.27;9.67;;;;;;;;;;4947533;28;20228;-66
2023/03/22 10:18:42;;;;;;;13.83;8.77;;;;;;;;;;4977241;28;20236;-66
2023/03/22 10:21:10;;;;;;;17.30;10.40;;;;;;;;;;4961202;28;20359;-67
2023/03/22 10:23:38;;;;;;;16.07;10.57;;;;;;;;;;4962490;28;20232;-67
2023/03/22 10:26:07;;;;;;;15.40;9.60;;;;;;;;;;4965294;28;20307;-66
2023/03/22 10:28:37;;;;;;;17.90;9.60;;;;;;;;;;4978917;28;20786;-67
2023/03/22 10:31:04;;;;;;;14.83;9.50;;;;;;;;;;4963259;28;20236;-67
2023/03/22 10:33:49;;;;;;;14.70;10.47;;;;;;;;;;4979883;28;20235;-65
2023/03/22 10:36:17;;;;;;;16.20;10.40;;;;;;;;;;4953530;28;20231;-66
2023/03/22 10:38:45;;;;;;;15.40;7.70;;;;;;;;;;4965245;28;20550;-68
2023/03/22 10:41:12;;;;;;;14.77;9.67;;;;;;;;;;4963013;28;20311;-67
2023/03/22 10:43:39;;;;;;;14.07;8.23;;;;;;;;;;4965558;28;20715;-66
2023/03/22 10:46:07;;;;;;;14.30;9.97;;;;;;;;;;4977807;28;20327;-67
2023/03/22 10:48:34;;;;;;;16.93;11.00;;;;;;;;;;4963821;28;20566;-68
2023/03/22 10:51:02;;;;;;;16.03;10.23;;;;;;;;;;4931858;28;20228;-66
2023/03/22 10:53:43;;;;;;;15.67;10.50;;;;;;;;;;4957674;28;20612;-66
2023/03/22 10:56:17;;;;;;;15.87;9.70;;;;;;;;;;4978037;28;20224;-67
2023/03/22 10:58:44;;;;;;;16.63;9.67;;;;;;;;;;4965433;28;20251;-67
2023/03/22 11:01:12;;;;;;;14.33;8.90;;;;;;;;;;4964883;28;20248;-66
2023/03/22 11:03:40;;;;;;;15.63;9.57;;;;;;;;;;4966698;28;20243;-67
2023/03/22 11:06:09;;;;;;;14.10;9.43;;;;;;;;;;4964630;28;20232;-67
2023/03/22 11:08:45;;;;;;;14.53;7.97;;;;;;;;;;4964467;28;20311;-67
2023/03/22 11:11:17;;;;;;;13.63;8.20;;;;;;;;;;4963401;28;20239;-67
2023/03/22 11:13:48;;;;;;;14.37;9.23;;;;;;;;;;4979263;28;21108;-67
2023/03/22 11:16:16;;;;;;;16.03;10.03;;;;;;;;;;4979530;28;20802;-66
2023/03/22 11:18:42;;;;;;;14.20;8.60;;;;;;;;;;4979488;28;20272;-66
2023/03/22 11:21:09;;;;;;;14.03;9.03;;;;;;;;;;4966197;28;20230;-66
2023/03/22 11:23:37;;;;;;;14.60;9.30;;;;;;;;;;4964402;28;20232;-66
2023/03/22 11:26:05;;;;;;;13.97;9.40;;;;;;;;;;4980785;28;20225;-66
2023/03/22 11:28:33;;;;;;;13.80;9.33;;;;;;;;;;4964473;28;20236;-67
2023/03/22 11:31:03;;;;;;;13.70;8.70;;;;;;;;;;4964660;28;20225;-66
2023/03/22 11:33:30;;;;;;;14.23;9.40;;;;;;;;;;4966078;28;20236;-66
2023/03/22 11:35:57;;;;;;;18.53;10.17;;;;;;;;;;4979282;28;20311;-66
2023/03/22 11:38:28;;;;;;;15.70;10.20;;;;;;;;;;4962288;28;20831;-65
2023/03/22 11:40:57;;;;;;;15.70;10.10;;;;;;;;;;4961739;28;20244;-66
2023/03/22 11:43:30;;;;;;;17.13;9.00;;;;;;;;;;4962938;28;20232;-66
2023/03/22 11:46:22;;;;;;;13.10;8.80;;;;;;;;;;4977474;28;20228;-66
2023/03/22 11:48:49;;;;;;;15.47;9.70;;;;;;;;;;4950866;28;20256;-66
2023/03/22 11:51:17;;;;;;;15.03;8.17;;;;;;;;;;4963324;28;20707;-66
2023/03/22 11:53:45;;;;;;;12.60;7.97;;;;;;;;;;4964850;28;20240;-66
2023/03/22 11:56:14;;;;;;;12.67;8.07;;;;;;;;;;4963141;28;20224;-66
2023/03/22 11:58:41;;;;;;;12.03;6.13;;;;;;;;;;4977005;28;20703;-66
2023/03/22 12:01:12;;;;;;;13.63;8.10;;;;;;;;;;4964586;28;20240;-65
2023/03/22 12:03:39;;;;;;;11.33;8.07;;;;;;;;;;4982221;28;20870;-66
2023/03/22 12:06:26;;;;;;;11.33;7.57;;;;;;;;;;4973124;28;20336;-65
2023/03/22 12:09:16;;;;;;;13.70;9.40;;;;;;;;;;4945434;28;20607;-66
2023/03/22 12:11:44;;;;;;;15.63;10.57;;;;;;;;;;4952656;28;22767;-66
2023/03/22 12:14:30;;;;;;;13.20;9.30;;;;;;;;;;4961576;28;20565;-67
2023/03/22 12:17:03;;;;;;;12.77;8.50;;;;;;;;;;4943206;28;20257;-66
2023/03/22 12:19:41;;;;;;;14.07;9.23;;;;;;;;;;4961146;28;20228;-67
2023/03/22 12:22:19;;;;;;;13.50;8.60;;;;;;;;;;4961737;28;20569;-66
2023/03/22 12:24:46;;;;;;;12.90;6.90;;;;;;;;;;4961135;28;20228;-66
2023/03/22 12:27:27;;;;;;;14.90;9.77;;;;;;;;;;4963213;28;20236;-65
2023/03/22 12:30:07;;;;;;;15.63;9.23;;;;;;;;;;4962273;28;20716;-65
2023/03/22 12:32:35;;;;;;;16.30;9.73;;;;;;;;;;4975599;28;20276;-65
2023/03/22 12:35:03;;;;;;;16.40;9.53;;;;;;;;;;4976673;28;20303;-66
2023/03/22 12:37:44;;;;;;;14.97;9.90;;;;;;;;;;4962189;28;20371;-66
2023/03/22 12:40:14;;;;;;;14.57;10.07;;;;;;;;;;4977700;28;20750;-65
2023/03/22 12:42:44;;;;;;;15.77;10.20;;;;;;;;;;4963152;28;20369;-66
2023/03/22 12:45:20;;;;;;;16.77;10.53;;;;;;;;;;4969289;28;20228;-66
2023/03/22 12:47:48;;;;;;;14.87;10.13;;;;;;;;;;4961404;28;20637;-66
2023/03/22 12:50:47;;;;;;;14.23;9.57;;;;;;;;;;4962475;28;20232;-66
2023/03/22 12:53:14;;;;;;;14.97;9.70;;;;;;;;;;4952051;28;20232;-66
2023/03/22 12:55:41;;;;;;;16.53;10.67;;;;;;;;;;4992380;28;20289;-65
2023/03/22 13:02:54;;;;;;;16.47;10.23;;;;;;;;;;4979051;28;20223;-66
2023/03/22 13:06:19;;;;;;;17.13;10.50;;;;;;;;;;4694541;27;10309214;-65
2023/03/22 13:09:07;;;;;;;13.87;9.17;;;;;;;;;;5062617;28;20225;-65
2023/03/22 13:12:39;;;;;;;;;;;;;;;;;;;;;
2023/03/22 13:15:33;;;;;;;17.20;10.43;;;;;;;;;;5001951;28;20719;-64
2023/03/22 13:22:49;;;;;;;13.27;6.40;;;;;;;;;;4939593;28;20228;-65
2023/03/22 13:30:20;;;;;;;18.23;10.30;;;;;;;;;;4868992;28;20274;-65
2023/03/22 13:33:37;;;;;;;15.50;8.80;;;;;;;;;;4920201;28;20229;-65
2023/03/22 13:37:19;;;;;;;15.60;9.47;;;;;;;;;;4946875;28;20359;-63
2023/03/22 13:44:30;;;;;;;20.20;10.83;;;;;;;;;;4943584;28;20290;-64
2023/03/22 13:46:59;;;;;;;17.30;9.57;;;;;;;;;;4924778;28;20224;-66
2023/03/22 13:49:38;;;;;;;16.23;10.83;;;;;;;;;;4978926;28;20222;-66
2023/03/22 13:52:06;;;;;;;17.50;8.03;;;;;;;;;;5015007;28;20246;-64
2023/03/22 13:54:42;;;;;;;15.23;8.00;;;;;;;;;;5018365;28;20802;-66
2023/03/22 13:57:16;;;;;;;13.90;8.97;;;;;;;;;;5055648;28;20229;-64
2023/03/22 13:59:59;;;;;;;16.93;11.03;;;;;;;;;;5056665;28;20699;-65
2023/03/22 14:02:37;;;;;;;15.63;9.07;;;;;;;;;;5048844;28;20228;-64
2023/03/22 14:05:15;;;;;;;16.83;9.60;;;;;;;;;;5028107;28;20261;-64
2023/03/22 14:08:00;;;;;;;17.23;11.17;;;;;;;;;;5033630;28;20682;-64
2023/03/22 14:10:30;;;;;;;16.43;10.80;;;;;;;;;;5022650;28;20237;-65
2023/03/22 14:12:59;;;;;;;15.73;9.20;;;;;;;;;;5056247;28;20224;-65
2023/03/22 14:15:27;;;;;;;19.60;11.00;;;;;;;;;;5017538;28;20241;-64
2023/03/22 14:17:54;;;;;;;15.13;9.93;;;;;;;;;;5010641;28;20222;-65
2023/03/22 14:20:21;;;;;;;15.97;9.40;;;;;;;;;;5025281;28;20273;-64
2023/03/22 14:22:58;;;;;;;15.43;10.23;;;;;;;;;;5024032;28;20223;-65
2023/03/22 14:25:28;;;;;;;15.37;10.53;;;;;;;;;;5024040;28;20253;-64
2023/03/22 14:27:54;;;;;;;16.30;10.43;;;;;;;;;;5013765;28;20230;-65
2023/03/22 14:30:32;;;;;;;17.23;11.13;;;;;;;;;;5010419;28;20265;-66
2023/03/22 14:33:07;;;;;;;14.53;10.17;;;;;;;;;;5042994;28;20228;-66
2023/03/22 14:35:36;;;;;;;17.00;10.27;;;;;;;;;;5014203;28;20252;-66
2023/03/22 14:38:03;;;;;;;18.53;11.63;;;;;;;;;;5045793;28;20220;-67
2023/03/22 14:40:33;;;;;;;16.67;11.07;;;;;;;;;;5060841;28;20220;-68
2023/03/22 14:43:14;;;;;;;18.67;10.90;;;;;;;;;;5049747;28;20245;-67
2023/03/22 14:45:40;;;;;;;17.10;11.47;;;;;;;;;;5059699;28;20289;-67
2023/03/22 14:48:26;;;;;;;17.17;11.30;;;;;;;;;;5052217;28;20638;-66
2023/03/22 14:50:52;;;;;;;17.33;11.43;;;;;;;;;;5026584;28;20627;-66
2023/03/22 14:53:21;;;;;;;18.27;11.43;;;;;;;;;;5020276;28;20225;-66
2023/03/22 14:55:49;;;;;;;16.53;9.50;;;;;;;;;;4993550;28;20261;-66
2023/03/22 14:58:15;;;;;;;18.37;11.97;;;;;;;;;;5002963;28;20234;-67
2023/03/22 15:00:40;;;;;;;18.63;11.57;;;;;;;;;;5039350;28;20229;-66
2023/03/22 15:03:07;;;;;;;17.47;12.30;;;;;;;;;;5047648;28;20495;-66
2023/03/22 15:05:35;;;;;;;20.73;11.70;;;;;;;;;;5062705;28;20240;-65
2023/03/22 15:08:06;;;;;;;21.30;12.23;;;;;;;;;;5074726;28;20228;-66
2023/03/22 15:10:32;;;;;;;19.53;11.90;;;;;;;;;;5042535;28;20351;-65
2023/03/22 15:12:58;;;;;;;21.13;12.60;;;;;;;;;;5012633;28;20870;-65
2023/03/22 15:15:31;;;;;;;21.70;13.20;;;;;;;;;;5050325;28;20642;-65
2023/03/22 15:17:57;;;;;;;20.27;12.37;;;;;;;;;;5059476;28;20306;-65
2023/03/22 15:20:26;;;;;;;18.07;11.97;;;;;;;;;;5055998;28;20229;-64
2023/03/22 15:22:53;;;;;;;21.67;13.30;;;;;;;;;;5055336;28;20275;-64
2023/03/22 15:25:18;;;;;;;21.20;12.10;;;;;;;;;;5045075;28;20233;-64
2023/03/22 15:27:44;;;;;;;20.17;12.23;;;;;;;;;;5001002;28;20676;-67
2023/03/22 15:30:10;;;;;;;21.37;13.70;;;;;;;;;;5036633;28;20221;-65
2023/03/22 15:32:39;;;;;;;22.20;13.93;;;;;;;;;;5047357;28;20248;-65
2023/03/22 15:35:06;;;;;;;22.23;13.97;;;;;;;;;;5038854;28;20221;-66
2023/03/22 15:37:32;;;;;;;20.33;14.03;;;;;;;;;;5017979;28;20361;-67
2023/03/22 15:40:00;;;;;;;25.33;13.83;;;;;;;;;;5035694;28;20707;-66
2023/03/22 15:42:28;;;;;;;22.50;14.10;;;;;;;;;;5023031;28;20701;-66
2023/03/22 15:44:53;;;;;;;20.30;13.57;;;;;;;;;;5011108;28;20228;-67
2023/03/22 15:47:19;;;;;;;17.87;12.87;;;;;;;;;;5007927;28;20218;-66